sensor_id;sensor_type;location;lat;lon;timestamp;P1;durP1;ratioP1;P2;durP2;ratioP2
7503;SDS011;3793;48.136;11.536;2022-08-19T00:01:38;4.60;;;4.20;;
7503;SDS011;3793;48.136;11.536;2022-08-19T00:04:06;4.78;;;4.38;;
7503;SDS011;3793;48.136;11.536;2022-08-19T00:06:33;5.47;;;4.95;;
7503;SDS011;3793;48.136;11.536;2022-08-19T00:09:00;4.20;;;3.80;;
7503;SDS011;3793;48.136;11.536;2022-08-19T00:11:27;5.13;;;4.63;;
7503;SDS011;3793;48.136;11.536;2022-08-19T00:13:54;4.80;;;4.40;;
7503;SDS011;3793;48.136;11.536;2022-08-19T00:16:23;4.88;;;4.47;;
7503;SDS011;3793;48.136;11.536;2022-08-19T00:18:50;4.60;;;4.20;;
7503;SDS011;3793;48.136;11.536;2022-08-19T00:21:16;5.60;;;5.10;;
7503;SDS011;3793;48.136;11.536;2022-08-19T00:23:43;5.50;;;5.00;;
7503;SDS011;3793;48.136;11.536;2022-08-19T00:26:10;5.47;;;4.97;;
7503;SDS011;3793;48.136;11.536;2022-08-19T00:28:37;6.55;;;5.80;;
7503;SDS011;3793;48.136;11.536;2022-08-19T00:31:05;9.55;;;8.65;;
7503;SDS011;3793;48.136;11.536;2022-08-19T00:33:33;8.63;;;7.68;;
7503;SDS011;3793;48.136;11.536;2022-08-19T00:36:00;7.47;;;6.43;;
7503;SDS011;3793;48.136;11.536;2022-08-19T00:38:28;7.53;;;6.13;;
7503;SDS011;3793;48.136;11.536;2022-08-19T00:40:54;7.13;;;6.32;;
7503;SDS011;3793;48.136;11.536;2022-08-19T00:43:22;6.68;;;6.07;;
7503;SDS011;3793;48.136;11.536;2022-08-19T00:45:49;7.20;;;6.40;;
7503;SDS011;3793;48.136;11.536;2022-08-19T00:48:16;6.90;;;6.30;;
7503;SDS011;3793;48.136;11.536;2022-08-19T00:50:46;7.30;;;6.60;;
7503;SDS011;3793;48.136;11.536;2022-08-19T00:53:15;7.07;;;6.38;;
7503;SDS011;3793;48.136;11.536;2022-08-19T00:55:44;6.57;;;5.97;;
7503;SDS011;3793;48.136;11.536;2022-08-19T00:58:12;7.45;;;6.65;;
7503;SDS011;3793;48.136;11.536;2022-08-19T01:00:40;7.47;;;6.72;;
7503;SDS011;3793;48.136;11.536;2022-08-19T01:03:08;8.15;;;7.40;;
7503;SDS011;3793;48.136;11.536;2022-08-19T01:05:35;7.90;;;7.20;;
7503;SDS011;3793;48.136;11.536;2022-08-19T01:08:05;7.93;;;7.13;;
7503;SDS011;3793;48.136;11.536;2022-08-19T01:10:33;8.70;;;7.80;;
7503;SDS011;3793;48.136;11.536;2022-08-19T01:13:03;8.55;;;7.75;;
7503;SDS011;3793;48.136;11.536;2022-08-19T01:15:34;8.63;;;7.80;;
7503;SDS011;3793;48.136;11.536;2022-08-19T01:18:04;7.90;;;7.13;;
7503;SDS011;3793;48.136;11.536;2022-08-19T01:20:31;8.30;;;7.57;;
7503;SDS011;3793;48.136;11.536;2022-08-19T01:23:01;8.75;;;7.90;;
7503;SDS011;3793;48.136;11.536;2022-08-19T01:25:29;9.52;;;8.68;;
7503;SDS011;3793;48.136;11.536;2022-08-19T01:28:01;8.90;;;8.00;;
7503;SDS011;3793;48.136;11.536;2022-08-19T01:30:29;10.90;;;8.73;;
7503;SDS011;3793;48.136;11.536;2022-08-19T01:32:58;9.95;;;8.95;;
7503;SDS011;3793;48.136;11.536;2022-08-19T01:35:28;9.63;;;8.63;;
7503;SDS011;3793;48.136;11.536;2022-08-19T01:38:18;11.55;;;8.90;;
7503;SDS011;3793;48.136;11.536;2022-08-19T01:40:55;9.65;;;8.65;;
7503;SDS011;3793;48.136;11.536;2022-08-19T01:43:22;8.82;;;8.02;;
7503;SDS011;3793;48.136;11.536;2022-08-19T01:45:50;10.18;;;8.45;;
7503;SDS011;3793;48.136;11.536;2022-08-19T01:48:22;9.38;;;8.48;;
7503;SDS011;3793;48.136;11.536;2022-08-19T01:50:49;8.88;;;8.07;;
7503;SDS011;3793;48.136;11.536;2022-08-19T01:53:19;8.50;;;7.70;;
7503;SDS011;3793;48.136;11.536;2022-08-19T01:55:47;8.23;;;7.43;;
7503;SDS011;3793;48.136;11.536;2022-08-19T01:58:16;8.38;;;7.57;;
7503;SDS011;3793;48.136;11.536;2022-08-19T02:00:45;8.77;;;7.93;;
7503;SDS011;3793;48.136;11.536;2022-08-19T02:03:14;7.75;;;7.07;;
7503;SDS011;3793;48.136;11.536;2022-08-19T02:05:41;8.48;;;7.68;;
7503;SDS011;3793;48.136;11.536;2022-08-19T02:08:08;8.85;;;7.57;;
7503;SDS011;3793;48.136;11.536;2022-08-19T02:10:39;8.57;;;7.75;;
7503;SDS011;3793;48.136;11.536;2022-08-19T02:13:07;8.35;;;7.55;;
7503;SDS011;3793;48.136;11.536;2022-08-19T02:15:33;7.63;;;6.93;;
7503;SDS011;3793;48.136;11.536;2022-08-19T02:18:00;7.80;;;7.10;;
7503;SDS011;3793;48.136;11.536;2022-08-19T02:20:26;7.55;;;6.75;;
7503;SDS011;3793;48.136;11.536;2022-08-19T02:22:53;8.48;;;7.68;;
7503;SDS011;3793;48.136;11.536;2022-08-19T02:25:20;7.95;;;6.85;;
7503;SDS011;3793;48.136;11.536;2022-08-19T02:27:49;8.95;;;7.95;;
7503;SDS011;3793;48.136;11.536;2022-08-19T02:30:17;7.20;;;6.50;;
7503;SDS011;3793;48.136;11.536;2022-08-19T02:32:44;8.32;;;7.47;;
7503;SDS011;3793;48.136;11.536;2022-08-19T02:35:11;7.38;;;6.68;;
7503;SDS011;3793;48.136;11.536;2022-08-19T02:37:39;6.88;;;6.20;;
7503;SDS011;3793;48.136;11.536;2022-08-19T02:40:23;7.57;;;6.88;;
7503;SDS011;3793;48.136;11.536;2022-08-19T02:42:51;8.30;;;6.32;;
7503;SDS011;3793;48.136;11.536;2022-08-19T02:45:18;7.05;;;6.43;;
7503;SDS011;3793;48.136;11.536;2022-08-19T02:47:45;7.20;;;6.53;;
7503;SDS011;3793;48.136;11.536;2022-08-19T02:50:12;6.47;;;5.88;;
7503;SDS011;3793;48.136;11.536;2022-08-19T02:52:39;6.90;;;6.30;;
7503;SDS011;3793;48.136;11.536;2022-08-19T02:55:06;6.75;;;6.05;;
7503;SDS011;3793;48.136;11.536;2022-08-19T02:57:33;6.93;;;6.32;;
7503;SDS011;3793;48.136;11.536;2022-08-19T03:00:02;7.00;;;6.32;;
7503;SDS011;3793;48.136;11.536;2022-08-19T03:02:30;7.07;;;6.40;;
7503;SDS011;3793;48.136;11.536;2022-08-19T03:04:56;6.80;;;6.03;;
7503;SDS011;3793;48.136;11.536;2022-08-19T03:07:23;7.53;;;6.82;;
7503;SDS011;3793;48.136;11.536;2022-08-19T03:09:49;6.93;;;6.30;;
7503;SDS011;3793;48.136;11.536;2022-08-19T03:12:18;7.43;;;6.72;;
7503;SDS011;3793;48.136;11.536;2022-08-19T03:14:44;7.63;;;6.50;;
7503;SDS011;3793;48.136;11.536;2022-08-19T03:17:13;6.70;;;6.10;;
7503;SDS011;3793;48.136;11.536;2022-08-19T03:19:39;7.63;;;6.40;;
7503;SDS011;3793;48.136;11.536;2022-08-19T03:22:08;7.60;;;6.82;;
7503;SDS011;3793;48.136;11.536;2022-08-19T03:24:35;7.05;;;6.45;;
7503;SDS011;3793;48.136;11.536;2022-08-19T03:27:01;7.10;;;6.40;;
7503;SDS011;3793;48.136;11.536;2022-08-19T03:29:30;6.95;;;6.30;;
7503;SDS011;3793;48.136;11.536;2022-08-19T03:32:00;7.00;;;5.88;;
7503;SDS011;3793;48.136;11.536;2022-08-19T03:34:31;7.78;;;6.22;;
7503;SDS011;3793;48.136;11.536;2022-08-19T03:37:01;7.18;;;6.47;;
7503;SDS011;3793;48.136;11.536;2022-08-19T03:39:29;6.50;;;6.00;;
7503;SDS011;3793;48.136;11.536;2022-08-19T03:41:56;9.13;;;5.68;;
7503;SDS011;3793;48.136;11.536;2022-08-19T03:44:27;7.10;;;6.50;;
7503;SDS011;3793;48.136;11.536;2022-08-19T03:46:55;6.80;;;5.97;;
7503;SDS011;3793;48.136;11.536;2022-08-19T03:49:22;5.70;;;5.15;;
7503;SDS011;3793;48.136;11.536;2022-08-19T03:51:51;6.00;;;5.40;;
7503;SDS011;3793;48.136;11.536;2022-08-19T03:54:18;6.75;;;6.15;;
7503;SDS011;3793;48.136;11.536;2022-08-19T03:56:46;6.78;;;6.07;;
7503;SDS011;3793;48.136;11.536;2022-08-19T03:59:15;6.15;;;5.57;;
7503;SDS011;3793;48.136;11.536;2022-08-19T04:01:42;6.55;;;5.72;;
7503;SDS011;3793;48.136;11.536;2022-08-19T04:04:09;6.20;;;5.60;;
7503;SDS011;3793;48.136;11.536;2022-08-19T04:06:36;6.35;;;5.45;;
7503;SDS011;3793;48.136;11.536;2022-08-19T04:09:07;6.70;;;6.10;;
7503;SDS011;3793;48.136;11.536;2022-08-19T04:11:35;8.20;;;6.85;;
7503;SDS011;3793;48.136;11.536;2022-08-19T04:14:04;7.20;;;6.47;;
7503;SDS011;3793;48.136;11.536;2022-08-19T04:16:30;6.32;;;5.72;;
7503;SDS011;3793;48.136;11.536;2022-08-19T04:19:00;6.88;;;6.28;;
7503;SDS011;3793;48.136;11.536;2022-08-19T04:21:29;6.88;;;6.28;;
7503;SDS011;3793;48.136;11.536;2022-08-19T04:23:56;8.07;;;6.50;;
7503;SDS011;3793;48.136;11.536;2022-08-19T04:26:28;8.18;;;6.25;;
7503;SDS011;3793;48.136;11.536;2022-08-19T04:28:57;7.18;;;6.47;;
7503;SDS011;3793;48.136;11.536;2022-08-19T04:31:24;7.30;;;6.60;;
7503;SDS011;3793;48.136;11.536;2022-08-19T04:33:52;8.48;;;7.65;;
7503;SDS011;3793;48.136;11.536;2022-08-19T04:36:21;9.20;;;8.30;;
7503;SDS011;3793;48.136;11.536;2022-08-19T04:38:50;8.82;;;7.93;;
7503;SDS011;3793;48.136;11.536;2022-08-19T04:41:16;10.07;;;8.20;;
7503;SDS011;3793;48.136;11.536;2022-08-19T04:44:02;9.43;;;8.43;;
7503;SDS011;3793;48.136;11.536;2022-08-19T04:46:29;9.52;;;7.60;;
7503;SDS011;3793;48.136;11.536;2022-08-19T04:48:57;8.65;;;7.70;;
7503;SDS011;3793;48.136;11.536;2022-08-19T04:51:24;9.13;;;7.68;;
7503;SDS011;3793;48.136;11.536;2022-08-19T04:53:51;10.30;;;8.68;;
7503;SDS011;3793;48.136;11.536;2022-08-19T04:56:18;8.45;;;7.65;;
7503;SDS011;3793;48.136;11.536;2022-08-19T04:58:51;10.13;;;8.82;;
7503;SDS011;3793;48.136;11.536;2022-08-19T05:01:21;9.02;;;7.93;;
7503;SDS011;3793;48.136;11.536;2022-08-19T05:03:48;9.05;;;8.10;;
7503;SDS011;3793;48.136;11.536;2022-08-19T05:06:16;8.60;;;7.43;;
7503;SDS011;3793;48.136;11.536;2022-08-19T05:08:43;8.93;;;7.50;;
7503;SDS011;3793;48.136;11.536;2022-08-19T05:11:13;9.88;;;8.23;;
7503;SDS011;3793;48.136;11.536;2022-08-19T05:13:40;9.07;;;7.93;;
7503;SDS011;3793;48.136;11.536;2022-08-19T05:16:08;8.60;;;7.78;;
7503;SDS011;3793;48.136;11.536;2022-08-19T05:18:37;9.60;;;7.65;;
7503;SDS011;3793;48.136;11.536;2022-08-19T05:21:21;9.68;;;8.77;;
7503;SDS011;3793;48.136;11.536;2022-08-19T05:24:05;12.40;;;8.25;;
7503;SDS011;3793;48.136;11.536;2022-08-19T05:26:33;8.52;;;7.40;;
7503;SDS011;3793;48.136;11.536;2022-08-19T05:29:00;9.20;;;7.50;;
7503;SDS011;3793;48.136;11.536;2022-08-19T05:31:27;8.95;;;8.05;;
7503;SDS011;3793;48.136;11.536;2022-08-19T05:33:55;9.73;;;8.68;;
7503;SDS011;3793;48.136;11.536;2022-08-19T05:36:23;10.65;;;7.97;;
7503;SDS011;3793;48.136;11.536;2022-08-19T05:38:51;8.68;;;7.78;;
7503;SDS011;3793;48.136;11.536;2022-08-19T05:41:19;8.63;;;7.75;;
7503;SDS011;3793;48.136;11.536;2022-08-19T05:43:46;9.75;;;8.52;;
7503;SDS011;3793;48.136;11.536;2022-08-19T05:46:16;10.35;;;8.00;;
7503;SDS011;3793;48.136;11.536;2022-08-19T05:48:44;8.18;;;7.38;;
7503;SDS011;3793;48.136;11.536;2022-08-19T05:51:12;8.68;;;7.78;;
7503;SDS011;3793;48.136;11.536;2022-08-19T05:53:39;9.48;;;8.32;;
7503;SDS011;3793;48.136;11.536;2022-08-19T05:56:05;9.30;;;8.30;;
7503;SDS011;3793;48.136;11.536;2022-08-19T05:58:33;8.38;;;7.57;;
7503;SDS011;3793;48.136;11.536;2022-08-19T06:00:59;10.05;;;9.05;;
7503;SDS011;3793;48.136;11.536;2022-08-19T06:03:30;9.77;;;8.10;;
7503;SDS011;3793;48.136;11.536;2022-08-19T06:05:57;9.82;;;8.73;;
7503;SDS011;3793;48.136;11.536;2022-08-19T06:08:27;12.35;;;9.18;;
7503;SDS011;3793;48.136;11.536;2022-08-19T06:10:53;10.30;;;9.10;;
7503;SDS011;3793;48.136;11.536;2022-08-19T06:13:20;11.13;;;9.85;;
7503;SDS011;3793;48.136;11.536;2022-08-19T06:15:47;10.00;;;9.07;;
7503;SDS011;3793;48.136;11.536;2022-08-19T06:18:14;12.00;;;9.27;;
7503;SDS011;3793;48.136;11.536;2022-08-19T06:20:41;9.80;;;8.43;;
7503;SDS011;3793;48.136;11.536;2022-08-19T06:23:08;10.63;;;9.50;;
7503;SDS011;3793;48.136;11.536;2022-08-19T06:25:36;10.95;;;9.82;;
7503;SDS011;3793;48.136;11.536;2022-08-19T06:28:05;10.43;;;9.30;;
7503;SDS011;3793;48.136;11.536;2022-08-19T06:30:31;11.75;;;10.32;;
7503;SDS011;3793;48.136;11.536;2022-08-19T06:32:58;12.07;;;10.85;;
7503;SDS011;3793;48.136;11.536;2022-08-19T06:35:24;11.70;;;9.80;;
7503;SDS011;3793;48.136;11.536;2022-08-19T06:37:52;12.10;;;10.40;;
7503;SDS011;3793;48.136;11.536;2022-08-19T06:40:18;13.68;;;11.63;;
7503;SDS011;3793;48.136;11.536;2022-08-19T06:42:47;13.05;;;10.38;;
7503;SDS011;3793;48.136;11.536;2022-08-19T06:45:13;12.07;;;10.63;;
7503;SDS011;3793;48.136;11.536;2022-08-19T06:47:40;10.88;;;9.80;;
7503;SDS011;3793;48.136;11.536;2022-08-19T06:50:13;11.57;;;10.38;;
7503;SDS011;3793;48.136;11.536;2022-08-19T06:52:39;11.57;;;10.43;;
7503;SDS011;3793;48.136;11.536;2022-08-19T06:55:06;13.98;;;11.63;;
7503;SDS011;3793;48.136;11.536;2022-08-19T06:57:33;14.82;;;12.52;;
7503;SDS011;3793;48.136;11.536;2022-08-19T07:00:02;11.60;;;10.35;;
7503;SDS011;3793;48.136;11.536;2022-08-19T07:02:28;13.65;;;12.13;;
7503;SDS011;3793;48.136;11.536;2022-08-19T07:04:55;16.63;;;13.57;;
7503;SDS011;3793;48.136;11.536;2022-08-19T07:07:23;12.50;;;11.20;;
7503;SDS011;3793;48.136;11.536;2022-08-19T07:09:50;13.57;;;12.15;;
7503;SDS011;3793;48.136;11.536;2022-08-19T07:12:18;16.13;;;14.43;;
7503;SDS011;3793;48.136;11.536;2022-08-19T07:14:45;13.95;;;12.43;;
7503;SDS011;3793;48.136;11.536;2022-08-19T07:17:29;16.27;;;13.35;;
7503;SDS011;3793;48.136;11.536;2022-08-19T07:19:56;16.73;;;14.52;;
7503;SDS011;3793;48.136;11.536;2022-08-19T07:22:22;18.10;;;14.60;;
7503;SDS011;3793;48.136;11.536;2022-08-19T07:24:49;15.10;;;13.50;;
7503;SDS011;3793;48.136;11.536;2022-08-19T07:27:15;16.40;;;13.82;;
7503;SDS011;3793;48.136;11.536;2022-08-19T07:29:43;16.98;;;15.20;;
7503;SDS011;3793;48.136;11.536;2022-08-19T07:32:10;16.90;;;15.27;;
7503;SDS011;3793;48.136;11.536;2022-08-19T07:34:39;16.73;;;15.02;;
7503;SDS011;3793;48.136;11.536;2022-08-19T07:37:05;17.55;;;15.60;;
7503;SDS011;3793;48.136;11.536;2022-08-19T07:39:33;18.67;;;16.70;;
7503;SDS011;3793;48.136;11.536;2022-08-19T07:42:01;20.10;;;17.48;;
7503;SDS011;3793;48.136;11.536;2022-08-19T07:44:28;20.00;;;18.00;;
7503;SDS011;3793;48.136;11.536;2022-08-19T07:46:56;20.00;;;17.60;;
7503;SDS011;3793;48.136;11.536;2022-08-19T07:49:23;21.33;;;18.58;;
7503;SDS011;3793;48.136;11.536;2022-08-19T07:51:52;22.90;;;18.98;;
7503;SDS011;3793;48.136;11.536;2022-08-19T07:54:19;20.15;;;18.15;;
7503;SDS011;3793;48.136;11.536;2022-08-19T07:56:46;20.30;;;17.02;;
7503;SDS011;3793;48.136;11.536;2022-08-19T07:59:13;24.00;;;18.48;;
7503;SDS011;3793;48.136;11.536;2022-08-19T08:01:39;19.55;;;17.52;;
7503;SDS011;3793;48.136;11.536;2022-08-19T08:04:06;19.75;;;17.65;;
7503;SDS011;3793;48.136;11.536;2022-08-19T08:06:51;18.42;;;16.63;;
7503;SDS011;3793;48.136;11.536;2022-08-19T08:09:50;19.80;;;17.77;;
7503;SDS011;3793;48.136;11.536;2022-08-19T08:12:18;23.02;;;19.90;;
7503;SDS011;3793;48.136;11.536;2022-08-19T08:14:48;19.83;;;17.45;;
7503;SDS011;3793;48.136;11.536;2022-08-19T08:17:15;21.77;;;18.42;;
7503;SDS011;3793;48.136;11.536;2022-08-19T08:19:42;20.55;;;18.42;;
7503;SDS011;3793;48.136;11.536;2022-08-19T08:22:11;20.88;;;18.67;;
7503;SDS011;3793;48.136;11.536;2022-08-19T08:25:00;19.02;;;17.05;;
7503;SDS011;3793;48.136;11.536;2022-08-19T08:27:27;20.75;;;18.05;;
7503;SDS011;3793;48.136;11.536;2022-08-19T08:29:56;20.23;;;18.13;;
7503;SDS011;3793;48.136;11.536;2022-08-19T08:32:22;20.25;;;18.20;;
7503;SDS011;3793;48.136;11.536;2022-08-19T08:34:49;20.10;;;17.80;;
7503;SDS011;3793;48.136;11.536;2022-08-19T08:37:17;21.48;;;19.17;;
7503;SDS011;3793;48.136;11.536;2022-08-19T08:39:43;18.83;;;16.83;;
7503;SDS011;3793;48.136;11.536;2022-08-19T08:42:11;20.20;;;18.10;;
7503;SDS011;3793;48.136;11.536;2022-08-19T08:44:39;20.85;;;18.67;;
7503;SDS011;3793;48.136;11.536;2022-08-19T08:47:11;23.38;;;19.85;;
7503;SDS011;3793;48.136;11.536;2022-08-19T08:49:40;21.98;;;19.58;;
7503;SDS011;3793;48.136;11.536;2022-08-19T08:52:10;20.15;;;17.65;;
7503;SDS011;3793;48.136;11.536;2022-08-19T08:54:39;21.90;;;19.63;;
7503;SDS011;3793;48.136;11.536;2022-08-19T08:57:07;22.20;;;19.42;;
7503;SDS011;3793;48.136;11.536;2022-08-19T08:59:38;24.23;;;20.27;;
7503;SDS011;3793;48.136;11.536;2022-08-19T09:02:06;22.20;;;19.90;;
7503;SDS011;3793;48.136;11.536;2022-08-19T09:04:33;22.83;;;19.98;;
7503;SDS011;3793;48.136;11.536;2022-08-19T09:07:04;20.85;;;18.60;;
7503;SDS011;3793;48.136;11.536;2022-08-19T09:09:34;27.70;;;20.98;;
7503;SDS011;3793;48.136;11.536;2022-08-19T09:12:05;24.83;;;20.90;;
7503;SDS011;3793;48.136;11.536;2022-08-19T09:14:36;25.67;;;20.63;;
7503;SDS011;3793;48.136;11.536;2022-08-19T09:17:06;24.73;;;20.25;;
7503;SDS011;3793;48.136;11.536;2022-08-19T09:19:34;23.27;;;20.13;;
7503;SDS011;3793;48.136;11.536;2022-08-19T09:22:00;24.85;;;20.83;;
7503;SDS011;3793;48.136;11.536;2022-08-19T09:24:27;20.95;;;18.48;;
7503;SDS011;3793;48.136;11.536;2022-08-19T09:26:54;21.38;;;18.60;;
7503;SDS011;3793;48.136;11.536;2022-08-19T09:29:22;21.38;;;19.13;;
7503;SDS011;3793;48.136;11.536;2022-08-19T09:31:49;24.30;;;20.58;;
7503;SDS011;3793;48.136;11.536;2022-08-19T09:34:16;24.48;;;19.65;;
7503;SDS011;3793;48.136;11.536;2022-08-19T09:36:44;25.42;;;20.83;;
7503;SDS011;3793;48.136;11.536;2022-08-19T09:39:11;20.63;;;18.38;;
7503;SDS011;3793;48.136;11.536;2022-08-19T09:41:38;22.67;;;18.05;;
7503;SDS011;3793;48.136;11.536;2022-08-19T09:44:04;22.33;;;19.52;;
7503;SDS011;3793;48.136;11.536;2022-08-19T09:46:33;21.40;;;19.10;;
7503;SDS011;3793;48.136;11.536;2022-08-19T09:49:00;23.10;;;19.80;;
7503;SDS011;3793;48.136;11.536;2022-08-19T09:51:30;23.75;;;19.50;;
7503;SDS011;3793;48.136;11.536;2022-08-19T09:53:58;23.00;;;19.73;;
7503;SDS011;3793;48.136;11.536;2022-08-19T09:56:26;22.92;;;19.20;;
7503;SDS011;3793;48.136;11.536;2022-08-19T09:58:52;23.27;;;18.23;;
7503;SDS011;3793;48.136;11.536;2022-08-19T10:01:25;22.42;;;19.17;;
7503;SDS011;3793;48.136;11.536;2022-08-19T10:03:54;26.67;;;18.25;;
7503;SDS011;3793;48.136;11.536;2022-08-19T10:06:21;22.17;;;18.10;;
7503;SDS011;3793;48.136;11.536;2022-08-19T10:08:48;23.23;;;19.63;;
7503;SDS011;3793;48.136;11.536;2022-08-19T10:11:15;23.00;;;19.15;;
7503;SDS011;3793;48.136;11.536;2022-08-19T10:13:42;22.00;;;18.77;;
7503;SDS011;3793;48.136;11.536;2022-08-19T10:16:09;19.85;;;17.75;;
7503;SDS011;3793;48.136;11.536;2022-08-19T10:18:36;21.65;;;17.90;;
7503;SDS011;3793;48.136;11.536;2022-08-19T10:21:05;23.40;;;18.90;;
7503;SDS011;3793;48.136;11.536;2022-08-19T10:23:34;22.55;;;19.48;;
7503;SDS011;3793;48.136;11.536;2022-08-19T10:26:01;23.08;;;18.17;;
7503;SDS011;3793;48.136;11.536;2022-08-19T10:28:28;23.10;;;19.92;;
7503;SDS011;3793;48.136;11.536;2022-08-19T10:30:54;21.02;;;18.17;;
7503;SDS011;3793;48.136;11.536;2022-08-19T10:33:21;20.90;;;18.48;;
7503;SDS011;3793;48.136;11.536;2022-08-19T10:35:49;24.48;;;19.40;;
7503;SDS011;3793;48.136;11.536;2022-08-19T10:38:26;20.55;;;18.35;;
7503;SDS011;3793;48.136;11.536;2022-08-19T10:40:53;22.80;;;18.00;;
7503;SDS011;3793;48.136;11.536;2022-08-19T10:43:20;19.88;;;17.70;;
7503;SDS011;3793;48.136;11.536;2022-08-19T10:45:48;18.75;;;16.67;;
7503;SDS011;3793;48.136;11.536;2022-08-19T10:48:15;18.55;;;16.45;;
7503;SDS011;3793;48.136;11.536;2022-08-19T10:50:41;20.58;;;16.25;;
7503;SDS011;3793;48.136;11.536;2022-08-19T10:53:27;17.60;;;15.73;;
7503;SDS011;3793;48.136;11.536;2022-08-19T10:55:53;18.17;;;16.02;;
7503;SDS011;3793;48.136;11.536;2022-08-19T10:58:37;16.02;;;14.15;;
7503;SDS011;3793;48.136;11.536;2022-08-19T11:01:04;14.77;;;13.27;;
7503;SDS011;3793;48.136;11.536;2022-08-19T11:03:30;13.55;;;12.20;;
7503;SDS011;3793;48.136;11.536;2022-08-19T11:05:58;13.90;;;12.45;;
7503;SDS011;3793;48.136;11.536;2022-08-19T11:08:26;12.45;;;11.27;;
7503;SDS011;3793;48.136;11.536;2022-08-19T11:10:53;11.02;;;9.95;;
7503;SDS011;3793;48.136;11.536;2022-08-19T11:13:25;11.55;;;10.45;;
7503;SDS011;3793;48.136;11.536;2022-08-19T11:15:56;11.00;;;9.90;;
7503;SDS011;3793;48.136;11.536;2022-08-19T11:18:22;11.30;;;10.23;;
7503;SDS011;3793;48.136;11.536;2022-08-19T11:20:49;12.80;;;11.50;;
7503;SDS011;3793;48.136;11.536;2022-08-19T11:23:16;13.07;;;11.80;;
7503;SDS011;3793;48.136;11.536;2022-08-19T11:25:44;12.00;;;10.80;;
7503;SDS011;3793;48.136;11.536;2022-08-19T11:28:10;11.48;;;10.27;;
7503;SDS011;3793;48.136;11.536;2022-08-19T11:30:37;10.55;;;9.48;;
7503;SDS011;3793;48.136;11.536;2022-08-19T11:33:04;8.20;;;7.50;;
7503;SDS011;3793;48.136;11.536;2022-08-19T11:35:30;6.70;;;6.00;;
7503;SDS011;3793;48.136;11.536;2022-08-19T11:37:58;5.20;;;4.70;;
7503;SDS011;3793;48.136;11.536;2022-08-19T11:40:25;5.38;;;4.88;;
7503;SDS011;3793;48.136;11.536;2022-08-19T11:42:53;5.20;;;4.80;;
7503;SDS011;3793;48.136;11.536;2022-08-19T11:45:22;6.15;;;4.70;;
7503;SDS011;3793;48.136;11.536;2022-08-19T11:47:49;4.80;;;4.40;;
7503;SDS011;3793;48.136;11.536;2022-08-19T11:50:16;3.63;;;3.33;;
7503;SDS011;3793;48.136;11.536;2022-08-19T11:52:43;3.83;;;3.40;;
7503;SDS011;3793;48.136;11.536;2022-08-19T11:55:10;3.67;;;3.38;;
7503;SDS011;3793;48.136;11.536;2022-08-19T11:57:37;3.53;;;3.20;;
7503;SDS011;3793;48.136;11.536;2022-08-19T12:00:07;3.85;;;3.55;;
7503;SDS011;3793;48.136;11.536;2022-08-19T12:02:35;3.10;;;2.80;;
7503;SDS011;3793;48.136;11.536;2022-08-19T12:05:01;2.72;;;2.53;;
7503;SDS011;3793;48.136;11.536;2022-08-19T12:07:28;3.00;;;1.83;;
7503;SDS011;3793;48.136;11.536;2022-08-19T12:09:56;4.75;;;2.30;;
7503;SDS011;3793;48.136;11.536;2022-08-19T12:12:23;2.15;;;1.90;;
7503;SDS011;3793;48.136;11.536;2022-08-19T12:14:49;1.90;;;1.80;;
7503;SDS011;3793;48.136;11.536;2022-08-19T12:17:23;1.80;;;1.70;;
7503;SDS011;3793;48.136;11.536;2022-08-19T12:19:50;2.00;;;1.80;;
7503;SDS011;3793;48.136;11.536;2022-08-19T12:22:16;2.55;;;2.03;;
7503;SDS011;3793;48.136;11.536;2022-08-19T12:24:43;1.75;;;1.55;;
7503;SDS011;3793;48.136;11.536;2022-08-19T12:27:10;2.65;;;1.40;;
7503;SDS011;3793;48.136;11.536;2022-08-19T12:29:36;1.83;;;1.73;;
7503;SDS011;3793;48.136;11.536;2022-08-19T12:32:03;1.50;;;1.30;;
7503;SDS011;3793;48.136;11.536;2022-08-19T12:34:31;1.73;;;1.63;;
7503;SDS011;3793;48.136;11.536;2022-08-19T12:37:00;1.40;;;1.30;;
7503;SDS011;3793;48.136;11.536;2022-08-19T12:39:27;1.98;;;1.70;;
7503;SDS011;3793;48.136;11.536;2022-08-19T12:41:55;1.40;;;1.30;;
7503;SDS011;3793;48.136;11.536;2022-08-19T12:44:23;1.58;;;1.48;;
7503;SDS011;3793;48.136;11.536;2022-08-19T12:46:49;1.80;;;1.70;;
7503;SDS011;3793;48.136;11.536;2022-08-19T12:49:18;1.40;;;1.20;;
7503;SDS011;3793;48.136;11.536;2022-08-19T12:51:50;1.45;;;1.35;;
7503;SDS011;3793;48.136;11.536;2022-08-19T12:54:17;2.05;;;1.83;;
7503;SDS011;3793;48.136;11.536;2022-08-19T12:56:43;2.05;;;1.75;;
7503;SDS011;3793;48.136;11.536;2022-08-19T12:59:10;2.47;;;1.70;;
7503;SDS011;3793;48.136;11.536;2022-08-19T13:01:37;1.50;;;1.40;;
7503;SDS011;3793;48.136;11.536;2022-08-19T13:04:04;1.67;;;1.58;;
7503;SDS011;3793;48.136;11.536;2022-08-19T13:06:31;2.08;;;1.88;;
7503;SDS011;3793;48.136;11.536;2022-08-19T13:08:59;1.90;;;1.70;;
7503;SDS011;3793;48.136;11.536;2022-08-19T13:11:25;1.60;;;1.50;;
7503;SDS011;3793;48.136;11.536;2022-08-19T13:13:58;1.80;;;1.70;;
7503;SDS011;3793;48.136;11.536;2022-08-19T13:16:24;4.03;;;1.90;;
7503;SDS011;3793;48.136;11.536;2022-08-19T13:18:53;1.63;;;1.52;;
7503;SDS011;3793;48.136;11.536;2022-08-19T13:21:20;1.65;;;1.55;;
7503;SDS011;3793;48.136;11.536;2022-08-19T13:23:47;1.70;;;1.60;;
7503;SDS011;3793;48.136;11.536;2022-08-19T13:26:16;1.48;;;1.38;;
7503;SDS011;3793;48.136;11.536;2022-08-19T13:28:43;1.70;;;1.60;;
7503;SDS011;3793;48.136;11.536;2022-08-19T13:31:29;1.80;;;1.70;;
7503;SDS011;3793;48.136;11.536;2022-08-19T13:34:14;1.95;;;1.70;;
7503;SDS011;3793;48.136;11.536;2022-08-19T13:36:40;1.80;;;1.70;;
7503;SDS011;3793;48.136;11.536;2022-08-19T13:39:07;1.90;;;1.70;;
7503;SDS011;3793;48.136;11.536;2022-08-19T13:41:36;2.15;;;2.00;;
7503;SDS011;3793;48.136;11.536;2022-08-19T13:44:03;1.83;;;1.70;;
7503;SDS011;3793;48.136;11.536;2022-08-19T13:46:31;1.85;;;1.75;;
7503;SDS011;3793;48.136;11.536;2022-08-19T13:48:57;2.45;;;2.25;;
7503;SDS011;3793;48.136;11.536;2022-08-19T13:51:24;2.63;;;2.22;;
7503;SDS011;3793;48.136;11.536;2022-08-19T13:53:54;2.42;;;1.88;;
7503;SDS011;3793;48.136;11.536;2022-08-19T13:56:20;2.58;;;2.38;;
7503;SDS011;3793;48.136;11.536;2022-08-19T13:58:48;2.28;;;2.08;;
7503;SDS011;3793;48.136;11.536;2022-08-19T14:01:18;2.95;;;2.70;;
7503;SDS011;3793;48.136;11.536;2022-08-19T14:03:45;2.83;;;2.63;;
7503;SDS011;3793;48.136;11.536;2022-08-19T14:06:14;3.03;;;2.75;;
7503;SDS011;3793;48.136;11.536;2022-08-19T14:08:41;2.97;;;2.67;;
7503;SDS011;3793;48.136;11.536;2022-08-19T14:11:08;3.08;;;2.83;;
7503;SDS011;3793;48.136;11.536;2022-08-19T14:13:35;4.03;;;3.35;;
7503;SDS011;3793;48.136;11.536;2022-08-19T14:16:13;3.20;;;2.90;;
7503;SDS011;3793;48.136;11.536;2022-08-19T14:18:40;3.33;;;3.03;;
7503;SDS011;3793;48.136;11.536;2022-08-19T14:21:07;3.38;;;3.08;;
7503;SDS011;3793;48.136;11.536;2022-08-19T14:23:34;4.10;;;2.80;;
7503;SDS011;3793;48.136;11.536;2022-08-19T14:26:04;3.42;;;2.85;;
7503;SDS011;3793;48.136;11.536;2022-08-19T14:28:31;3.22;;;2.95;;
7503;SDS011;3793;48.136;11.536;2022-08-19T14:30:58;4.65;;;2.63;;
7503;SDS011;3793;48.136;11.536;2022-08-19T14:33:26;2.55;;;2.35;;
7503;SDS011;3793;48.136;11.536;2022-08-19T14:35:52;2.72;;;2.53;;
7503;SDS011;3793;48.136;11.536;2022-08-19T14:38:19;2.70;;;2.50;;
7503;SDS011;3793;48.136;11.536;2022-08-19T14:40:46;3.05;;;2.83;;
7503;SDS011;3793;48.136;11.536;2022-08-19T14:43:14;2.60;;;2.40;;
7503;SDS011;3793;48.136;11.536;2022-08-19T14:45:42;2.50;;;2.30;;
7503;SDS011;3793;48.136;11.536;2022-08-19T14:48:09;1.92;;;1.83;;
7503;SDS011;3793;48.136;11.536;2022-08-19T14:50:37;2.97;;;1.98;;
7503;SDS011;3793;48.136;11.536;2022-08-19T14:53:05;2.20;;;2.05;;
7503;SDS011;3793;48.136;11.536;2022-08-19T14:55:32;2.47;;;2.28;;
7503;SDS011;3793;48.136;11.536;2022-08-19T14:57:58;3.10;;;2.35;;
7503;SDS011;3793;48.136;11.536;2022-08-19T15:00:25;2.30;;;2.10;;